createdAt,value
2017-12-02T00:01:00.390Z,0
2017-12-02T00:02:22.125Z,0
2017-12-02T00:03:43.850Z,0
2017-12-02T00:05:05.674Z,0
2017-12-02T00:06:27.375Z,0
2017-12-02T00:07:49.093Z,0
2017-12-02T00:09:10.826Z,0
2017-12-02T00:10:32.779Z,0
2017-12-02T00:11:55.003Z,0
2017-12-02T00:13:17.006Z,0
2017-12-02T00:14:38.791Z,0
2017-12-02T00:16:33.218Z,0
2017-12-02T00:17:54.377Z,0
2017-12-02T00:19:16.110Z,0
2017-12-02T00:20:38.004Z,0
2017-12-02T00:22:00.325Z,0
2017-12-02T00:23:21.762Z,0
2017-12-02T00:24:43.200Z,0
2017-12-02T00:26:04.954Z,0
2017-12-02T00:27:26.215Z,0
2017-12-02T00:28:47.465Z,0
2017-12-02T00:30:08.945Z,0
2017-12-02T00:31:30.906Z,0
2017-12-02T00:32:52.392Z,0
2017-12-02T00:34:14.346Z,0
2017-12-02T00:35:36.430Z,0
2017-12-02T00:36:57.885Z,0
2017-12-02T00:38:20.202Z,0
2017-12-02T00:39:41.973Z,0
2017-12-02T00:41:03.953Z,0
2017-12-02T00:42:25.915Z,0
2017-12-02T00:43:48.299Z,0
2017-12-02T00:45:10.291Z,0
2017-12-02T00:46:31.727Z,0
2017-12-02T00:47:53.710Z,0
2017-12-02T00:49:14.967Z,0
2017-12-02T00:50:36.945Z,0
2017-12-02T00:51:58.543Z,0
2017-12-02T00:53:20.519Z,0
2017-12-02T00:54:42.894Z,0
2017-12-02T00:56:04.587Z,0
2017-12-02T00:57:26.279Z,0
2017-12-02T00:58:48.055Z,0
2017-12-02T01:00:10.390Z,0
2017-12-02T01:01:31.567Z,0
2017-12-02T01:02:53.345Z,0
2017-12-02T01:04:15.038Z,0
2017-12-02T01:05:37.018Z,0
2017-12-02T01:06:59.256Z,0
2017-12-02T01:08:21.212Z,0
2017-12-02T01:09:42.985Z,0
2017-12-02T01:11:04.142Z,0
2017-12-02T01:12:26.426Z,0
2017-12-02T01:13:48.455Z,0
2017-12-02T01:15:10.825Z,0
2017-12-02T01:16:32.522Z,0
2017-12-02T01:17:55.019Z,0
2017-12-02T01:19:16.473Z,0
2017-12-02T01:20:38.464Z,0
2017-12-02T01:22:00.196Z,0
2017-12-02T01:23:22.469Z,0
2017-12-02T01:24:43.893Z,0
2017-12-02T01:26:05.978Z,0
2017-12-02T01:27:27.827Z,0
2017-12-02T01:28:49.798Z,0
2017-12-02T01:30:11.768Z,0
2017-12-02T01:31:33.205Z,0
2017-12-02T01:32:54.667Z,0
2017-12-02T01:34:16.666Z,0
2017-12-02T01:35:38.619Z,0
2017-12-02T01:37:00.345Z,0
2017-12-02T01:38:22.677Z,0
2017-12-02T01:39:44.646Z,0
2017-12-02T01:41:06.353Z,0
2017-12-02T01:42:28.315Z,0
2017-12-02T01:43:50.388Z,0
2017-12-02T01:45:12.428Z,0
2017-12-02T01:46:34.126Z,0
2017-12-02T01:47:56.408Z,0
2017-12-02T01:49:18.353Z,0
2017-12-02T01:50:40.038Z,0
2017-12-02T01:52:01.803Z,0
2017-12-02T01:53:23.575Z,0
2017-12-02T01:54:45.566Z,0
2017-12-02T01:56:07.306Z,0
2017-12-02T01:57:29.024Z,0
2017-12-02T01:58:50.702Z,0
2017-12-02T02:00:12.387Z,0
2017-12-02T02:01:33.783Z,0
2017-12-02T02:02:55.735Z,0
2017-12-02T02:04:17.164Z,0
2017-12-02T02:05:39.166Z,0
2017-12-02T02:07:01.166Z,0
2017-12-02T02:08:22.866Z,0
2017-12-02T02:09:44.031Z,0
2017-12-02T02:11:06.316Z,0
2017-12-02T02:12:28.283Z,0
2017-12-02T02:13:50.308Z,0
2017-12-02T02:15:11.725Z,0
2017-12-02T02:16:32.979Z,0
2017-12-02T02:17:54.681Z,0
2017-12-02T02:19:16.962Z,0
2017-12-02T02:20:38.657Z,0
2017-12-02T02:22:00.457Z,0
2017-12-02T02:23:22.856Z,0
2017-12-02T02:24:45.217Z,0
2017-12-02T02:26:07.225Z,0
2017-12-02T02:27:29.176Z,0
2017-12-02T02:28:50.906Z,0
2017-12-02T02:30:13.148Z,0
2017-12-02T02:31:35.389Z,0
2017-12-02T02:32:57.086Z,0
2017-12-02T02:34:18.236Z,0
2017-12-02T02:35:39.941Z,0
2017-12-02T02:37:01.374Z,0
2017-12-02T02:38:23.348Z,0
2017-12-02T02:39:45.586Z,0
2017-12-02T02:41:07.634Z,0
2017-12-02T02:42:29.048Z,0
2017-12-02T02:43:50.728Z,0
2017-12-02T02:45:13.056Z,0
2017-12-02T02:46:35.094Z,0
2017-12-02T02:47:56.848Z,0
2017-12-02T02:49:18.847Z,0
2017-12-02T02:50:41.254Z,0
2017-12-02T02:52:03.268Z,0
2017-12-02T02:53:25.245Z,0
2017-12-02T02:54:46.944Z,0
2017-12-02T02:56:08.355Z,0
2017-12-02T02:57:30.060Z,0
2017-12-02T02:58:51.735Z,0
2017-12-02T03:00:13.476Z,0
2017-12-02T03:01:35.434Z,0
2017-12-02T03:02:56.595Z,0
2017-12-02T03:04:18.567Z,0
2017-12-02T03:05:40.120Z,0
2017-12-02T03:07:01.866Z,0
2017-12-02T03:08:23.303Z,0
2017-12-02T03:09:44.747Z,0
2017-12-02T03:11:06.904Z,0
2017-12-02T03:12:28.901Z,0
2017-12-02T03:13:50.644Z,0
2017-12-02T03:15:11.804Z,0
2017-12-02T03:16:33.485Z,0
2017-12-02T03:17:54.637Z,0
2017-12-02T03:19:16.587Z,0
2017-12-02T03:20:38.528Z,0
2017-12-02T03:22:00.403Z,0
2017-12-02T03:23:22.084Z,0
2017-12-02T03:24:43.515Z,0
2017-12-02T03:26:05.196Z,0
2017-12-02T03:27:27.053Z,0
2017-12-02T03:28:49.354Z,0
2017-12-02T03:30:11.057Z,0
2017-12-02T03:31:32.755Z,0
2017-12-02T03:32:53.915Z,0
2017-12-02T03:34:15.327Z,0
2017-12-02T03:35:37.283Z,0
2017-12-02T03:36:59.287Z,0
2017-12-02T03:38:21.135Z,0
2017-12-02T03:39:42.815Z,0
2017-12-02T03:41:04.321Z,0
2017-12-02T03:42:25.847Z,0
2017-12-02T03:43:48.178Z,0
2017-12-02T03:45:09.872Z,0
2017-12-02T03:46:31.543Z,0
2017-12-02T03:47:53.495Z,0
2017-12-02T03:49:15.204Z,0
2017-12-02T03:50:37.447Z,0
2017-12-02T03:51:59.404Z,0
2017-12-02T03:53:21.090Z,0
2017-12-02T03:54:43.219Z,0
2017-12-02T03:56:04.354Z,0
2017-12-02T03:57:26.054Z,0
2017-12-02T03:58:47.735Z,0
2017-12-02T04:00:09.062Z,0
2017-12-02T04:01:31.163Z,0
2017-12-02T04:02:52.851Z,0
2017-12-02T04:04:14.824Z,0
2017-12-02T04:05:36.519Z,0
2017-12-02T04:06:58.515Z,0
2017-12-02T04:08:20.746Z,0
2017-12-02T04:09:42.700Z,0
2017-12-02T04:11:04.364Z,0
2017-12-02T04:12:26.366Z,0
2017-12-02T04:13:47.505Z,0
2017-12-02T04:15:09.734Z,0
2017-12-02T04:16:31.424Z,0
2017-12-02T04:17:53.524Z,0
2017-12-02T04:19:15.607Z,0
2017-12-02T04:20:37.116Z,0
2017-12-02T04:21:58.266Z,0
2017-12-02T04:23:20.616Z,0
2017-12-02T04:24:42.058Z,0
2017-12-02T04:26:04.015Z,0
2017-12-02T04:27:26.224Z,0
2017-12-02T04:28:47.508Z,0
2017-12-02T04:30:09.716Z,0
2017-12-02T04:31:31.691Z,0
2017-12-02T04:32:53.675Z,0
2017-12-02T04:34:15.622Z,0
2017-12-02T04:35:37.486Z,0
2017-12-02T04:36:58.895Z,0
2017-12-02T04:38:20.960Z,0
2017-12-02T04:39:42.112Z,0
2017-12-02T04:41:03.796Z,0
2017-12-02T04:42:25.908Z,0
2017-12-02T04:43:48.136Z,0
2017-12-02T04:45:09.814Z,0
2017-12-02T04:46:31.329Z,0
2017-12-02T04:47:53.300Z,0
2017-12-02T04:49:15.084Z,0
2017-12-02T04:50:36.766Z,0
2017-12-02T04:51:58.192Z,0
2017-12-02T04:53:20.422Z,0
2017-12-02T04:54:42.101Z,0
2017-12-02T04:56:04.344Z,0
2017-12-02T04:57:26.304Z,0
2017-12-02T04:58:47.459Z,0
2017-12-02T05:00:09.933Z,0
2017-12-02T05:01:31.644Z,0
2017-12-02T05:02:53.736Z,0
2017-12-02T05:04:15.507Z,0
2017-12-02T05:05:37.314Z,0
2017-12-02T05:06:58.213Z,0
2017-12-02T05:08:19.904Z,0
2017-12-02T05:09:41.649Z,0
2017-12-02T05:11:03.086Z,0
2017-12-02T05:12:25.049Z,0
2017-12-02T05:13:46.477Z,0
2017-12-02T05:15:08.181Z,0
2017-12-02T05:16:30.281Z,0
2017-12-02T05:17:51.434Z,0
2017-12-02T05:19:12.321Z,0
2017-12-02T05:20:33.519Z,0
2017-12-02T05:21:55.053Z,0
2017-12-02T05:23:16.207Z,0
2017-12-02T05:24:38.172Z,0
2017-12-02T05:26:00.125Z,0
2017-12-02T05:27:21.815Z,0
2017-12-02T05:28:44.215Z,0
2017-12-02T05:30:06.463Z,0
2017-12-02T05:31:28.268Z,0
2017-12-02T05:32:50.456Z,0
2017-12-02T05:34:12.674Z,0
2017-12-02T05:35:34.416Z,0
2017-12-02T05:36:56.438Z,0
2017-12-02T05:38:18.335Z,0
2017-12-02T05:39:40.561Z,0
2017-12-02T05:41:02.266Z,0
2017-12-02T05:42:24.240Z,0
2017-12-02T05:43:45.995Z,0
2017-12-02T05:45:08.037Z,0
2017-12-02T05:46:29.807Z,0
2017-12-02T05:47:51.779Z,0
2017-12-02T05:49:12.933Z,0
2017-12-02T05:50:34.415Z,0
2017-12-02T05:51:55.945Z,0
2017-12-02T05:53:18.008Z,0
2017-12-02T05:54:40.294Z,0
2017-12-02T05:56:01.984Z,0
2017-12-02T05:57:23.482Z,0
2017-12-02T05:58:45.035Z,0
2017-12-02T06:00:06.984Z,0
2017-12-02T06:01:28.761Z,0
2017-12-02T06:02:50.818Z,0
2017-12-02T06:04:13.135Z,0
2017-12-02T06:05:34.026Z,0
2017-12-02T06:06:55.611Z,0
2017-12-02T06:08:17.574Z,0
2017-12-02T06:09:39.523Z,0
2017-12-02T06:11:00.791Z,0
2017-12-02T06:12:22.751Z,0
2017-12-02T06:13:44.738Z,0
2017-12-02T06:15:06.714Z,0
2017-12-02T06:16:28.730Z,0
2017-12-02T06:17:50.566Z,0
2017-12-02T06:19:12.803Z,0
2017-12-02T06:20:34.282Z,0
2017-12-02T06:21:55.762Z,0
2017-12-02T06:23:17.195Z,0
2017-12-02T06:24:38.625Z,0
2017-12-02T06:26:00.843Z,0
2017-12-02T06:27:23.104Z,0
2017-12-02T06:28:44.894Z,0
2017-12-02T06:30:06.967Z,0
2017-12-02T06:31:28.654Z,0
2017-12-02T06:32:50.343Z,0
2017-12-02T06:34:12.045Z,0
2017-12-02T06:35:33.835Z,0
2017-12-02T06:36:55.795Z,0
2017-12-02T06:38:17.611Z,0
2017-12-02T06:39:39.327Z,0
2017-12-02T06:41:01.030Z,0
2017-12-02T06:42:23.135Z,0
2017-12-02T06:43:45.355Z,0
2017-12-02T06:45:07.205Z,0
2017-12-02T06:46:28.666Z,0
2017-12-02T06:47:49.905Z,0
2017-12-02T06:49:11.683Z,0
2017-12-02T06:50:33.133Z,0
2017-12-02T06:51:55.102Z,0
2017-12-02T06:53:17.096Z,0
2017-12-02T06:54:39.313Z,0
2017-12-02T06:56:01.086Z,0
2017-12-02T06:57:23.207Z,0
2017-12-02T06:58:44.365Z,0
2017-12-02T07:00:05.811Z,0
2017-12-02T07:01:28.290Z,0
2017-12-02T07:02:50.334Z,0
2017-12-02T07:04:12.303Z,0
2017-12-02T07:05:34.259Z,0
2017-12-02T07:06:55.943Z,0
2017-12-02T07:08:17.624Z,0
2017-12-02T07:09:39.586Z,0
2017-12-02T07:11:01.787Z,0
2017-12-02T07:12:23.505Z,0
2017-12-02T07:13:45.606Z,0
2017-12-02T07:15:07.136Z,0
2017-12-02T07:16:29.264Z,0
2017-12-02T07:17:50.975Z,0
2017-12-02T07:19:12.682Z,0
2017-12-02T07:20:34.549Z,0
2017-12-02T07:21:55.995Z,0
2017-12-02T07:23:17.945Z,5
2017-12-02T07:24:39.092Z,5
2017-12-02T07:26:00.671Z,5
2017-12-02T07:27:22.736Z,5
2017-12-02T07:28:44.754Z,5
2017-12-02T07:30:06.271Z,5
2017-12-02T07:31:28.035Z,5
2017-12-02T07:32:49.653Z,5
2017-12-02T07:34:11.371Z,5
2017-12-02T07:35:33.195Z,5
2017-12-02T07:36:54.894Z,5
2017-12-02T07:38:16.914Z,5
2017-12-02T07:39:39.024Z,10
2017-12-02T07:41:01.265Z,10
2017-12-02T07:42:23.090Z,10
2017-12-02T07:43:45.408Z,10
2017-12-02T07:45:07.748Z,10
2017-12-02T07:46:28.957Z,10
2017-12-02T07:47:50.922Z,15
2017-12-02T07:49:12.687Z,15
2017-12-02T07:50:34.472Z,15
2017-12-02T07:51:56.181Z,15
2017-12-02T07:53:17.909Z,15
2017-12-02T07:54:39.985Z,15
2017-12-02T07:56:01.679Z,15
2017-12-02T07:57:23.903Z,20
2017-12-02T07:58:45.671Z,20
2017-12-02T08:00:07.906Z,20
2017-12-02T08:01:29.395Z,20
2017-12-02T08:02:51.097Z,20
2017-12-02T08:04:13.064Z,20
2017-12-02T08:05:35.325Z,25
2017-12-02T08:06:56.766Z,25
2017-12-02T08:08:18.881Z,25
2017-12-02T08:09:41.226Z,25
2017-12-02T08:11:03.196Z,25
2017-12-02T08:12:24.896Z,25
2017-12-02T08:13:46.672Z,25
2017-12-02T08:15:08.102Z,25
2017-12-02T08:16:30.347Z,25
2017-12-02T08:17:52.085Z,30
2017-12-02T08:19:13.530Z,30
2017-12-02T08:20:35.903Z,30
2017-12-02T08:21:57.868Z,30
2017-12-02T08:23:19.625Z,30
2017-12-02T08:24:41.366Z,30
2017-12-02T08:26:03.084Z,30
2017-12-02T08:27:25.148Z,35
2017-12-02T08:28:46.903Z,35
2017-12-02T08:30:08.915Z,40
2017-12-02T08:31:30.895Z,40
2017-12-02T08:32:53.874Z,40
2017-12-02T08:34:15.826Z,35
2017-12-02T08:35:37.795Z,35
2017-12-02T08:37:00.036Z,40
2017-12-02T08:38:22.023Z,45
2017-12-02T08:39:44.046Z,45
2017-12-02T08:41:05.736Z,40
2017-12-02T08:42:27.190Z,40
2017-12-02T08:43:49.434Z,40
2017-12-02T08:45:11.215Z,45
2017-12-02T08:46:33.097Z,50
2017-12-02T08:47:54.792Z,45
2017-12-02T08:49:17.009Z,45
2017-12-02T08:50:39.056Z,45
2017-12-02T08:52:01.373Z,50
2017-12-02T08:53:22.823Z,45
2017-12-02T08:54:44.397Z,45
2017-12-02T08:56:06.457Z,45
2017-12-02T08:57:28.300Z,45
2017-12-02T08:58:50.137Z,45
2017-12-02T09:00:11.582Z,50
2017-12-02T09:01:33.043Z,45
2017-12-02T09:02:55.321Z,40
2017-12-02T09:04:17.036Z,40
2017-12-02T09:05:38.617Z,50
2017-12-02T09:07:00.636Z,50
2017-12-02T09:08:22.391Z,50
2017-12-02T09:09:44.436Z,45
2017-12-02T09:11:06.111Z,45
2017-12-02T09:12:28.122Z,50
2017-12-02T09:13:49.853Z,50
2017-12-02T09:15:12.165Z,55
2017-12-02T09:16:34.446Z,55
2017-12-02T09:17:56.262Z,50
2017-12-02T09:19:18.425Z,50
2017-12-02T09:20:40.136Z,50
2017-12-02T09:22:02.104Z,50
2017-12-02T09:23:24.102Z,50
2017-12-02T09:24:46.375Z,50
2017-12-02T09:26:08.123Z,55
2017-12-02T09:27:30.090Z,55
2017-12-02T09:28:52.433Z,55
2017-12-02T09:30:14.705Z,55
2017-12-02T09:31:36.681Z,60
2017-12-02T09:32:58.395Z,60
2017-12-02T09:34:19.851Z,60
2017-12-02T09:35:42.095Z,65
2017-12-02T09:37:03.845Z,65
2017-12-02T09:38:25.842Z,60
2017-12-02T09:39:48.151Z,60
2017-12-02T09:41:10.397Z,60
2017-12-02T09:42:32.775Z,65
2017-12-02T09:43:54.512Z,70
2017-12-02T09:45:16.506Z,70
2017-12-02T09:46:38.605Z,70
2017-12-02T09:48:00.345Z,65
2017-12-02T09:49:22.324Z,75
2017-12-02T09:50:44.317Z,75
2017-12-02T09:52:06.093Z,75
2017-12-02T09:53:27.276Z,65
2017-12-02T09:54:49.080Z,70
2017-12-02T09:56:11.062Z,75
2017-12-02T09:57:33.352Z,85
2017-12-02T09:58:54.828Z,75
2017-12-02T10:00:16.814Z,75
2017-12-02T10:01:38.821Z,75
2017-12-02T10:03:00.822Z,70
2017-12-02T10:04:23.146Z,70
2017-12-02T10:05:44.839Z,70
2017-12-02T10:07:06.568Z,70
2017-12-02T10:08:28.890Z,70
2017-12-02T10:09:50.381Z,75
2017-12-02T10:11:12.925Z,80
2017-12-02T10:12:34.735Z,80
2017-12-02T10:13:56.794Z,80
2017-12-02T10:15:18.844Z,85
2017-12-02T10:16:41.193Z,90
2017-12-02T10:18:03.178Z,85
2017-12-02T10:19:24.853Z,85
2017-12-02T10:20:47.104Z,85
2017-12-02T10:22:08.849Z,85
2017-12-02T10:23:30.925Z,85
2017-12-02T10:24:52.898Z,90
2017-12-02T10:26:14.131Z,95
2017-12-02T10:27:36.117Z,100
2017-12-02T10:28:58.126Z,105
2017-12-02T10:30:20.430Z,105
2017-12-02T10:31:42.689Z,105
2017-12-02T10:33:04.943Z,105
2017-12-02T10:34:26.949Z,95
2017-12-02T10:35:49.345Z,95
2017-12-02T10:37:11.345Z,95
2017-12-02T10:38:33.750Z,90
2017-12-02T10:39:54.922Z,90
2017-12-02T10:41:16.643Z,90
2017-12-02T10:42:38.385Z,90
2017-12-02T10:44:00.655Z,90
2017-12-02T10:45:22.368Z,90
2017-12-02T10:46:44.383Z,100
2017-12-02T10:48:06.656Z,100
2017-12-02T10:49:28.752Z,90
2017-12-02T10:50:50.745Z,90
2017-12-02T10:52:12.726Z,100
2017-12-02T10:53:35.025Z,95
2017-12-02T10:54:57.412Z,90
2017-12-02T10:56:18.923Z,90
2017-12-02T10:57:41.282Z,95
2017-12-02T10:59:02.735Z,100
2017-12-02T11:00:24.810Z,100
2017-12-02T11:01:46.797Z,95
2017-12-02T11:03:09.141Z,95
2017-12-02T11:04:31.163Z,100
2017-12-02T11:05:53.424Z,100
2017-12-02T11:07:15.144Z,105
2017-12-02T11:08:37.495Z,110
2017-12-02T11:09:58.921Z,105
2017-12-02T11:11:21.023Z,95
2017-12-02T11:12:43.312Z,90
2017-12-02T11:14:05.036Z,90
2017-12-02T11:15:26.773Z,90
2017-12-02T11:16:48.233Z,85
2017-12-02T11:18:09.961Z,75
2017-12-02T11:19:32.021Z,75
2017-12-02T11:20:53.731Z,85
2017-12-02T11:22:15.280Z,95
2017-12-02T11:23:37.270Z,95
2017-12-02T11:24:59.284Z,95
2017-12-02T11:26:21.543Z,100
2017-12-02T11:27:43.800Z,100
2017-12-02T11:29:06.127Z,100
2017-12-02T11:30:27.923Z,105
2017-12-02T11:31:49.726Z,100
2017-12-02T11:33:12.084Z,90
2017-12-02T11:34:33.793Z,90
2017-12-02T11:35:55.674Z,90
2017-12-02T11:37:17.932Z,85
2017-12-02T11:38:40.228Z,95
2017-12-02T11:40:02.601Z,95
2017-12-02T11:41:24.943Z,90
2017-12-02T11:42:47.044Z,85
2017-12-02T11:44:08.791Z,90
2017-12-02T11:45:30.507Z,95
2017-12-02T11:46:52.898Z,85
2017-12-02T11:48:15.179Z,95
2017-12-02T11:49:37.411Z,95
2017-12-02T11:50:59.473Z,95
2017-12-02T11:52:21.852Z,85
2017-12-02T11:53:43.843Z,100
2017-12-02T11:55:06.104Z,85
2017-12-02T11:56:28.364Z,75
2017-12-02T11:57:50.549Z,75
2017-12-02T11:59:12.282Z,75
2017-12-02T12:00:34.383Z,75
2017-12-02T12:01:56.419Z,70
2017-12-02T12:03:18.767Z,80
2017-12-02T12:04:41.190Z,80
2017-12-02T12:06:03.223Z,75
2017-12-02T12:07:25.495Z,80
2017-12-02T12:08:47.502Z,75
2017-12-02T12:10:09.760Z,75
2017-12-02T12:11:32.007Z,75
2017-12-02T12:12:53.724Z,70
2017-12-02T12:14:15.716Z,85
2017-12-02T12:15:37.506Z,80
2017-12-02T12:16:59.493Z,80
2017-12-02T12:18:21.811Z,85
2017-12-02T12:19:44.115Z,80
2017-12-02T12:21:06.305Z,90
2017-12-02T12:22:28.031Z,80
2017-12-02T12:23:49.883Z,85
2017-12-02T12:25:11.858Z,75
2017-12-02T12:26:34.129Z,75
2017-12-02T12:27:55.877Z,65
2017-12-02T12:29:17.882Z,65
2017-12-02T12:30:39.457Z,60
2017-12-02T12:32:01.274Z,60
2017-12-02T12:33:22.989Z,65
2017-12-02T12:34:46.994Z,65
2017-12-02T12:36:09.026Z,65
2017-12-02T12:37:31.010Z,65
2017-12-02T12:38:52.993Z,70
2017-12-02T12:40:15.023Z,65
2017-12-02T12:41:37.023Z,65
2017-12-02T12:42:59.120Z,60
2017-12-02T12:44:21.192Z,55
2017-12-02T12:45:43.451Z,60
2017-12-02T12:47:05.525Z,60
2017-12-02T12:48:27.793Z,60
2017-12-02T12:49:49.810Z,65
2017-12-02T12:51:11.844Z,70
2017-12-02T12:52:33.626Z,70
2017-12-02T12:53:56.115Z,75
2017-12-02T12:55:18.132Z,70
2017-12-02T12:56:40.426Z,70
2017-12-02T12:58:02.139Z,70
2017-12-02T12:59:24.424Z,60
2017-12-02T13:00:46.170Z,60
2017-12-02T13:02:08.322Z,60
2017-12-02T13:03:30.587Z,55
2017-12-02T13:04:53.010Z,55
2017-12-02T13:06:14.304Z,55
2017-12-02T13:07:36.296Z,50
2017-12-02T13:08:58.548Z,50
2017-12-02T13:10:20.573Z,50
2017-12-02T13:11:42.547Z,50
2017-12-02T13:13:04.777Z,50
2017-12-02T13:14:27.102Z,50
2017-12-02T13:15:49.092Z,50
2017-12-02T13:17:11.104Z,50
2017-12-02T13:18:33.128Z,50
2017-12-02T13:19:54.844Z,50
2017-12-02T13:21:16.826Z,50
2017-12-02T13:22:39.156Z,50
2017-12-02T13:24:01.251Z,50
2017-12-02T13:25:23.577Z,45
2017-12-02T13:26:45.985Z,45
2017-12-02T13:28:08.075Z,50
2017-12-02T13:29:30.122Z,50
2017-12-02T13:30:52.384Z,45
2017-12-02T13:32:14.114Z,50
2017-12-02T13:33:36.331Z,50
2017-12-02T13:34:58.322Z,45
2017-12-02T13:36:20.136Z,45
2017-12-02T13:37:41.954Z,40
2017-12-02T13:39:04.095Z,40
2017-12-02T13:40:25.636Z,45
2017-12-02T13:41:47.392Z,45
2017-12-02T13:43:09.742Z,45
2017-12-02T13:44:32.026Z,40
2017-12-02T13:45:53.858Z,40
2017-12-02T13:47:15.629Z,35
2017-12-02T13:48:37.872Z,35
2017-12-02T13:50:00.167Z,35
2017-12-02T13:51:22.274Z,40
2017-12-02T13:52:44.275Z,35
2017-12-02T13:54:05.977Z,35
2017-12-02T13:55:28.212Z,40
2017-12-02T13:56:50.306Z,40
2017-12-02T13:58:12.555Z,40
2017-12-02T13:59:34.626Z,35
2017-12-02T14:00:56.466Z,35
2017-12-02T14:02:18.587Z,30
2017-12-02T14:03:40.328Z,30
2017-12-02T14:05:02.316Z,30
2017-12-02T14:06:24.744Z,30
2017-12-02T14:07:46.839Z,30
2017-12-02T14:09:09.165Z,30
2017-12-02T14:10:30.639Z,30
2017-12-02T14:11:52.982Z,25
2017-12-02T14:13:14.429Z,25
2017-12-02T14:14:36.781Z,25
2017-12-02T14:15:58.780Z,25
2017-12-02T14:17:21.118Z,25
2017-12-02T14:18:43.440Z,25
2017-12-02T14:20:05.162Z,25
2017-12-02T14:21:26.889Z,25
2017-12-02T14:22:48.749Z,20
2017-12-02T14:24:11.051Z,20
2017-12-02T14:25:32.327Z,20
2017-12-02T14:26:54.288Z,20
2017-12-02T14:28:16.669Z,20
2017-12-02T14:29:38.679Z,15
2017-12-02T14:31:00.783Z,15
2017-12-02T14:32:22.535Z,15
2017-12-02T14:33:44.324Z,15
2017-12-02T14:35:06.306Z,15
2017-12-02T14:36:28.327Z,10
2017-12-02T14:37:50.332Z,10
2017-12-02T14:39:12.582Z,10
2017-12-02T14:40:34.558Z,15
2017-12-02T14:41:56.904Z,10
2017-12-02T14:43:19.272Z,10
2017-12-02T14:44:41.314Z,10
2017-12-02T14:46:03.269Z,10
2017-12-02T14:47:25.170Z,10
2017-12-02T14:48:47.155Z,5
2017-12-02T14:50:08.878Z,5
2017-12-02T14:51:31.211Z,5
2017-12-02T14:52:53.596Z,5
2017-12-02T14:54:15.856Z,5
2017-12-02T14:55:38.219Z,5
2017-12-02T14:57:00.459Z,5
2017-12-02T14:58:22.735Z,5
2017-12-02T14:59:44.491Z,5
2017-12-02T15:01:06.781Z,0
2017-12-02T15:02:28.264Z,0
2017-12-02T15:03:49.906Z,0
2017-12-02T15:05:11.656Z,0
2017-12-02T15:06:33.080Z,0
2017-12-02T15:07:55.181Z,0
2017-12-02T15:09:16.904Z,0
2017-12-02T15:10:38.617Z,0
2017-12-02T15:12:00.428Z,0
2017-12-02T15:13:22.506Z,0
2017-12-02T15:14:44.496Z,0
2017-12-02T15:16:06.520Z,0
2017-12-02T15:17:28.280Z,0
2017-12-02T15:18:50.618Z,0
2017-12-02T15:20:12.318Z,0
2017-12-02T15:21:34.028Z,0
2017-12-02T15:22:56.488Z,0
2017-12-02T15:24:18.217Z,0
2017-12-02T15:25:39.829Z,0
2017-12-02T15:27:01.823Z,0
2017-12-02T15:28:23.635Z,0
2017-12-02T15:29:45.691Z,0
2017-12-02T15:31:07.476Z,0
2017-12-02T15:32:29.476Z,0
2017-12-02T15:33:50.947Z,0
2017-12-02T15:35:13.081Z,0
2017-12-02T15:36:35.097Z,0
2017-12-02T15:37:56.963Z,0
2017-12-02T15:39:19.305Z,0
2017-12-02T15:40:41.590Z,0
2017-12-02T15:42:03.857Z,0
2017-12-02T15:43:26.156Z,0
2017-12-02T15:44:48.417Z,0
2017-12-02T15:46:10.809Z,0
2017-12-02T15:47:32.796Z,0
2017-12-02T15:48:54.832Z,0
2017-12-02T15:50:16.925Z,0
2017-12-02T15:51:38.935Z,0
2017-12-02T15:53:01.069Z,0
2017-12-02T15:54:23.117Z,0
2017-12-02T15:55:45.329Z,0
2017-12-02T15:57:07.678Z,0
2017-12-02T15:58:30.048Z,0
2017-12-02T15:59:52.488Z,0
2017-12-02T16:01:14.535Z,0
2017-12-02T16:02:36.632Z,0
2017-12-02T16:03:59.006Z,0
2017-12-02T16:05:21.112Z,0
2017-12-02T16:06:43.448Z,0
2017-12-02T16:08:05.553Z,0
2017-12-02T16:09:28.054Z,0
2017-12-02T16:10:49.795Z,0
2017-12-02T16:12:12.074Z,0
2017-12-02T16:13:34.098Z,0
2017-12-02T16:14:56.120Z,0
2017-12-02T16:16:19.972Z,0
2017-12-02T16:17:41.430Z,0
2017-12-02T16:19:03.407Z,0
2017-12-02T16:20:25.378Z,0
2017-12-02T16:21:47.360Z,0
2017-12-02T16:23:09.625Z,0
2017-12-02T16:24:31.883Z,0
2017-12-02T16:25:54.335Z,0
2017-12-02T16:27:16.944Z,0
2017-12-02T16:28:38.777Z,0
2017-12-02T16:30:00.587Z,0
2017-12-02T16:31:22.905Z,0
2017-12-02T16:32:44.887Z,0
2017-12-02T16:34:06.612Z,0
2017-12-02T16:35:28.949Z,0
2017-12-02T16:36:51.227Z,0
2017-12-02T16:38:13.235Z,0
2017-12-02T16:39:35.250Z,0
2017-12-02T16:40:57.242Z,0
2017-12-02T16:42:19.612Z,0
2017-12-02T16:43:41.896Z,0
2017-12-02T16:45:03.919Z,0
2017-12-02T16:46:26.188Z,0
2017-12-02T16:47:47.699Z,0
2017-12-02T16:49:10.059Z,0
2017-12-02T16:50:32.426Z,0
2017-12-02T16:51:54.217Z,0
2017-12-02T16:53:15.945Z,0
2017-12-02T16:54:38.469Z,0
2017-12-02T16:56:00.756Z,0
2017-12-02T16:57:23.068Z,0
2017-12-02T16:58:44.802Z,0
2017-12-02T17:00:06.538Z,0
2017-12-02T17:01:28.393Z,0
2017-12-02T17:02:50.411Z,0
2017-12-02T17:04:12.468Z,0
2017-12-02T17:05:34.207Z,0
2017-12-02T17:06:56.270Z,0
2017-12-02T17:08:18.522Z,0
2017-12-02T17:09:40.823Z,0
2017-12-02T17:11:02.814Z,0
2017-12-02T17:12:24.804Z,0
2017-12-02T17:13:47.085Z,0
2017-12-02T17:15:09.421Z,0
2017-12-02T17:16:31.440Z,0
2017-12-02T17:17:53.699Z,0
2017-12-02T17:19:16.002Z,0
2017-12-02T17:20:38.030Z,0
2017-12-02T17:22:00.093Z,0
2017-12-02T17:23:22.108Z,0
2017-12-02T17:24:43.978Z,0
2017-12-02T17:26:06.320Z,0
2017-12-02T17:27:28.045Z,0
2017-12-02T17:28:49.488Z,0
2017-12-02T17:30:11.842Z,0
2017-12-02T17:31:34.189Z,0
2017-12-02T17:32:56.180Z,0
2017-12-02T17:34:18.298Z,0
2017-12-02T17:35:40.075Z,0
2017-12-02T17:37:02.121Z,0
2017-12-02T17:38:23.844Z,0
2017-12-02T17:39:45.992Z,0
2017-12-02T17:41:08.326Z,0
2017-12-02T17:42:30.323Z,0
2017-12-02T17:43:52.324Z,0
2017-12-02T17:45:14.986Z,0
2017-12-02T17:46:37.041Z,0
2017-12-02T17:47:59.036Z,0
2017-12-02T17:49:21.280Z,0
2017-12-02T17:50:43.718Z,0
2017-12-02T17:52:05.260Z,0
2017-12-02T17:53:26.988Z,0
2017-12-02T17:54:48.725Z,0
2017-12-02T17:56:11.026Z,0
2017-12-02T17:57:33.052Z,0
2017-12-02T17:58:55.423Z,0
2017-12-02T18:00:17.445Z,0
2017-12-02T18:01:39.178Z,0
2017-12-02T18:03:01.690Z,0
2017-12-02T18:04:23.124Z,0
2017-12-02T18:05:44.585Z,0
2017-12-02T18:07:06.305Z,0
2017-12-02T18:08:28.569Z,0
2017-12-02T18:09:50.534Z,0
2017-12-02T18:11:12.621Z,0
2017-12-02T18:12:34.325Z,0
2017-12-02T18:13:56.324Z,0
2017-12-02T18:15:17.765Z,0
2017-12-02T18:16:40.157Z,0
2017-12-02T18:18:02.116Z,0
2017-12-02T18:19:23.709Z,0
2017-12-02T18:20:46.014Z,0
2017-12-02T18:22:08.328Z,0
2017-12-02T18:23:30.727Z,0
2017-12-02T18:24:53.162Z,0
2017-12-02T18:26:14.613Z,0
2017-12-02T18:27:36.398Z,0
2017-12-02T18:28:57.676Z,0
2017-12-02T18:30:19.474Z,0
2017-12-02T18:31:41.596Z,0
2017-12-02T18:33:03.430Z,0
2017-12-02T18:34:25.497Z,0
2017-12-02T18:35:47.329Z,0
2017-12-02T18:37:09.075Z,0
2017-12-02T18:38:31.315Z,0
2017-12-02T18:39:53.389Z,0
2017-12-02T18:41:15.098Z,0
2017-12-02T18:42:36.655Z,0
2017-12-02T18:43:58.357Z,0
2017-12-02T18:45:19.807Z,0
2017-12-02T18:46:41.605Z,0
2017-12-02T18:48:03.885Z,0
2017-12-02T18:49:26.022Z,0
2017-12-02T18:50:48.200Z,0
2017-12-02T18:52:10.187Z,0
2017-12-02T18:53:32.169Z,0
2017-12-02T18:54:54.159Z,0
2017-12-02T18:56:15.992Z,0
2017-12-02T18:57:37.564Z,0
2017-12-02T18:58:59.579Z,0
2017-12-02T19:00:21.842Z,0
2017-12-02T19:01:44.203Z,0
2017-12-02T19:03:06.177Z,0
2017-12-02T19:04:28.466Z,0
2017-12-02T19:05:50.715Z,0
2017-12-02T19:07:13.064Z,0
2017-12-02T19:08:35.388Z,0
2017-12-02T19:09:57.304Z,0
2017-12-02T19:11:19.094Z,0
2017-12-02T19:12:40.846Z,0
2017-12-02T19:14:03.189Z,0
2017-12-02T19:15:25.205Z,0
2017-12-02T19:16:47.185Z,0
2017-12-02T19:18:09.307Z,0
2017-12-02T19:19:31.416Z,0
2017-12-02T19:20:53.719Z,0
2017-12-02T19:22:15.641Z,0
2017-12-02T19:23:37.491Z,0
2017-12-02T19:24:59.880Z,0
2017-12-02T19:26:22.146Z,0
2017-12-02T19:27:44.256Z,0
2017-12-02T19:29:06.600Z,0
2017-12-02T19:30:28.335Z,0
2017-12-02T19:31:50.367Z,0
2017-12-02T19:33:12.378Z,0
2017-12-02T19:34:34.198Z,0
2017-12-02T19:35:56.483Z,0
2017-12-02T19:37:18.953Z,0
2017-12-02T19:38:40.964Z,0
2017-12-02T19:40:02.486Z,0
2017-12-02T19:41:24.799Z,0
2017-12-02T19:42:46.779Z,0
2017-12-02T19:44:08.808Z,0
2017-12-02T19:45:30.881Z,0
2017-12-02T19:46:52.344Z,0
2017-12-02T19:48:14.109Z,0
2017-12-02T19:49:36.130Z,0
2017-12-02T19:50:58.897Z,0
2017-12-02T19:52:21.199Z,0
2017-12-02T19:53:43.645Z,0
2017-12-02T19:55:05.729Z,0